Time;durP1;ratioP1;P1;durP2;ratioP2;P2;SDS_P1;SDS_P2;PMS_P1;PMS_P2;Temp;Humidity;BMP_temperature;BMP_pressure;BME280_temperature;BME280_humidity;BME280_pressure;Samples;Min_cycle;Max_cycle;Signal;HPM_P1;HPM_P2
2021/05/07 00:01:59;;;;;;;4.45;2.95;;;;;;;;;;4973480;28;20080;-57
2021/05/07 00:04:27;;;;;;;4.97;2.67;;;;;;;;;;4971071;28;20072;-57
2021/05/07 00:06:53;;;;;;;4.25;2.25;;;;;;;;;;4975255;28;20113;-57
2021/05/07 00:09:21;;;;;;;3.85;2.83;;;;;;;;;;4956070;28;20045;-56
2021/05/07 00:11:46;;;;;;;8.70;2.67;;;;;;;;;;4972816;28;22058;-57
2021/05/07 00:14:14;;;;;;;5.72;3.33;;;;;;;;;;4974475;28;20034;-57
2021/05/07 00:16:39;;;;;;;8.02;3.13;;;;;;;;;;4972430;28;20030;-57
2021/05/07 00:19:08;;;;;;;4.22;2.60;;;;;;;;;;4973219;28;20031;-57
2021/05/07 00:21:34;;;;;;;5.75;2.97;;;;;;;;;;4973106;28;20129;-56
2021/05/07 00:24:00;;;;;;;6.18;3.65;;;;;;;;;;4971568;28;20101;-58
2021/05/07 00:26:25;;;;;;;4.07;3.03;;;;;;;;;;4988462;28;20573;-58
2021/05/07 00:28:53;;;;;;;6.07;3.55;;;;;;;;;;4972895;28;20046;-57
2021/05/07 00:31:19;;;;;;;4.05;3.22;;;;;;;;;;4989551;28;20129;-57
2021/05/07 00:33:45;;;;;;;5.22;3.60;;;;;;;;;;4974198;28;20040;-57
2021/05/07 00:36:10;;;;;;;6.05;2.90;;;;;;;;;;4974517;28;20494;-56
2021/05/07 00:38:36;;;;;;;7.22;2.90;;;;;;;;;;4973480;28;20157;-57
2021/05/07 00:41:04;;;;;;;6.68;3.13;;;;;;;;;;4972828;28;20065;-58
2021/05/07 00:43:29;;;;;;;4.55;2.88;;;;;;;;;;4989216;28;20038;-56
2021/05/07 00:45:56;;;;;;;6.93;2.80;;;;;;;;;;4971940;28;21035;-57
2021/05/07 00:48:21;;;;;;;5.05;2.80;;;;;;;;;;4972469;28;20062;-57
2021/05/07 00:50:47;;;;;;;9.57;3.17;;;;;;;;;;4971400;28;20398;-57
2021/05/07 00:53:19;;;;;;;6.72;3.05;;;;;;;;;;4972571;28;20486;-57
2021/05/07 00:55:44;;;;;;;6.97;2.75;;;;;;;;;;4972934;28;20057;-57
2021/05/07 00:58:10;;;;;;;7.45;3.53;;;;;;;;;;4972559;28;20042;-58
2021/05/07 01:00:36;;;;;;;7.13;3.03;;;;;;;;;;4972468;28;20037;-57
2021/05/07 01:03:03;;;;;;;4.05;2.63;;;;;;;;;;4972843;28;20034;-57
2021/05/07 01:05:29;;;;;;;5.32;3.15;;;;;;;;;;4973690;28;20042;-57
2021/05/07 01:07:55;;;;;;;5.20;2.97;;;;;;;;;;4973980;28;20038;-57
2021/05/07 01:10:21;;;;;;;4.35;2.88;;;;;;;;;;4970159;28;20037;-58
2021/05/07 01:12:50;;;;;;;4.63;3.22;;;;;;;;;;4970855;28;20489;-58
2021/05/07 01:15:23;;;;;;;6.90;3.30;;;;;;;;;;4972559;28;20062;-57
2021/05/07 01:17:51;;;;;;;4.28;2.55;;;;;;;;;;4973676;28;20034;-58
2021/05/07 01:20:26;;;;;;;5.18;2.67;;;;;;;;;;4970584;28;20022;-57
2021/05/07 01:22:52;;;;;;;;;;;;;;;;;;4973253;28;20088;-57
2021/05/07 01:25:22;;;;;;;8.73;2.40;;;;;;;;;;4988129;28;19921;-57
2021/05/07 01:27:49;;;;;;;7.30;2.92;;;;;;;;;;4986928;28;20552;-57
2021/05/07 01:30:15;;;;;;;3.35;2.65;;;;;;;;;;4972291;28;20034;-57
2021/05/07 01:32:41;;;;;;;5.35;3.00;;;;;;;;;;4972295;28;20414;-57
2021/05/07 01:35:09;;;;;;;4.70;3.03;;;;;;;;;;4970379;28;20092;-57
2021/05/07 01:37:37;;;;;;;4.45;3.28;;;;;;;;;;4971981;28;20034;-57
2021/05/07 01:40:12;;;;;;;6.43;3.53;;;;;;;;;;4970441;28;20058;-58
2021/05/07 01:42:37;;;;;;;6.78;3.17;;;;;;;;;;4971366;28;20108;-58
2021/05/07 01:45:05;;;;;;;5.15;3.03;;;;;;;;;;4970541;28;20038;-59
2021/05/07 01:47:30;;;;;;;9.07;3.92;;;;;;;;;;4970207;28;20030;-57
2021/05/07 01:49:58;;;;;;;5.80;3.78;;;;;;;;;;4969200;28;20042;-58
2021/05/07 01:52:26;;;;;;;12.48;3.47;;;;;;;;;;4971291;28;20041;-57
2021/05/07 01:54:52;;;;;;;7.55;4.05;;;;;;;;;;4971629;28;20037;-59
2021/05/07 01:57:22;;;;;;;9.57;3.75;;;;;;;;;;4971541;28;20030;-58
2021/05/07 01:59:48;;;;;;;10.05;2.50;;;;;;;;;;4972243;28;20122;-58
2021/05/07 02:02:14;;;;;;;3.40;2.28;;;;;;;;;;4971339;28;20101;-57
2021/05/07 02:04:40;;;;;;;1.77;1.35;;;;;;;;;;4954586;28;20561;-58
2021/05/07 02:07:08;;;;;;;1.45;0.98;;;;;;;;;;4972482;28;20956;-57
2021/05/07 02:09:33;;;;;;;1.77;0.95;;;;;;;;;;4970158;28;20110;-58
2021/05/07 02:11:59;;;;;;;0.98;0.98;;;;;;;;;;4971726;28;20030;-58
2021/05/07 02:14:25;;;;;;;2.28;0.77;;;;;;;;;;4986498;28;20607;-59
2021/05/07 02:16:53;;;;;;;3.65;1.10;;;;;;;;;;4970291;28;20034;-57
2021/05/07 02:19:18;;;;;;;2.10;0.60;;;;;;;;;;4971577;28;20026;-58
2021/05/07 02:21:44;;;;;;;2.78;0.52;;;;;;;;;;4970241;28;21981;-58
2021/05/07 02:24:11;;;;;;;1.88;0.73;;;;;;;;;;4970163;28;20058;-57
2021/05/07 02:26:37;;;;;;;0.47;0.45;;;;;;;;;;4971440;28;20093;-60
2021/05/07 02:29:03;;;;;;;0.22;0.22;;;;;;;;;;4970695;28;20727;-57
2021/05/07 02:31:29;;;;;;;0.40;0.40;;;;;;;;;;4972782;28;20500;-59
2021/05/07 02:33:57;;;;;;;0.65;0.35;;;;;;;;;;4953354;28;20046;-58
2021/05/07 02:36:23;;;;;;;0.30;0.30;;;;;;;;;;4970991;28;20034;-57
2021/05/07 02:38:50;;;;;;;1.08;0.55;;;;;;;;;;4969355;28;20026;-58
2021/05/07 02:41:16;;;;;;;0.20;0.20;;;;;;;;;;4968355;28;20092;-58
2021/05/07 02:43:42;;;;;;;0.55;0.30;;;;;;;;;;4953671;28;20076;-59
2021/05/07 02:46:07;;;;;;;0.60;0.30;;;;;;;;;;4970842;28;20034;-57
2021/05/07 02:48:33;;;;;;;0.40;0.40;;;;;;;;;;4971076;28;20038;-58
2021/05/07 02:51:03;;;;;;;0.50;0.45;;;;;;;;;;4971103;28;20094;-57
2021/05/07 02:53:29;;;;;;;2.92;0.70;;;;;;;;;;4968939;28;20121;-57
2021/05/07 02:55:55;;;;;;;0.95;0.43;;;;;;;;;;4970625;28;20112;-57
2021/05/07 02:58:20;;;;;;;1.95;0.88;;;;;;;;;;4953321;28;20121;-57
2021/05/07 03:00:46;;;;;;;0.55;0.55;;;;;;;;;;4971299;28;20033;-59
2021/05/07 03:03:12;;;;;;;2.72;0.70;;;;;;;;;;4971192;28;20097;-57
2021/05/07 03:05:40;;;;;;;0.57;0.45;;;;;;;;;;4952961;28;20038;-57
2021/05/07 03:08:06;;;;;;;2.13;0.60;;;;;;;;;;4954324;28;20042;-57
2021/05/07 03:10:34;;;;;;;1.42;1.10;;;;;;;;;;4950349;28;20038;-58
2021/05/07 03:13:02;;;;;;;1.15;0.77;;;;;;;;;;4985946;28;20042;-59
2021/05/07 03:15:29;;;;;;;2.17;1.20;;;;;;;;;;4972286;28;20030;-58
2021/05/07 03:17:55;;;;;;;0.80;0.80;;;;;;;;;;4973024;28;20030;-57
2021/05/07 03:20:21;;;;;;;1.30;0.95;;;;;;;;;;4970199;28;21043;-58
2021/05/07 03:22:46;;;;;;;2.80;0.75;;;;;;;;;;4985780;28;20034;-60
2021/05/07 03:25:12;;;;;;;2.58;1.08;;;;;;;;;;4970373;28;20035;-57
2021/05/07 03:27:38;;;;;;;1.02;0.93;;;;;;;;;;4970956;28;20038;-58
2021/05/07 03:30:04;;;;;;;6.53;1.23;;;;;;;;;;4969341;28;20026;-59
2021/05/07 03:32:30;;;;;;;1.60;1.15;;;;;;;;;;4971485;28;20038;-57
2021/05/07 03:34:55;;;;;;;1.40;1.10;;;;;;;;;;4971802;28;20034;-57
2021/05/07 03:37:23;;;;;;;2.58;1.60;;;;;;;;;;4957297;28;20038;-58
2021/05/07 03:39:52;;;;;;;1.08;0.98;;;;;;;;;;4973253;28;20053;-60
2021/05/07 03:42:19;;;;;;;2.70;0.70;;;;;;;;;;4975589;28;20066;-57
2021/05/07 03:44:45;;;;;;;1.40;1.10;;;;;;;;;;4972485;28;20041;-57
2021/05/07 03:47:16;;;;;;;1.05;0.95;;;;;;;;;;4989873;28;20045;-57
2021/05/07 03:49:41;;;;;;;1.13;1.02;;;;;;;;;;4974710;28;20746;-58
2021/05/07 03:52:07;;;;;;;0.73;0.60;;;;;;;;;;4971834;28;20055;-59
2021/05/07 03:54:33;;;;;;;0.88;0.88;;;;;;;;;;4972138;28;20042;-59
2021/05/07 03:56:58;;;;;;;1.42;1.13;;;;;;;;;;4973777;28;20028;-58
2021/05/07 03:59:24;;;;;;;0.88;0.88;;;;;;;;;;4972657;28;20417;-57
2021/05/07 04:01:49;;;;;;;4.95;1.30;;;;;;;;;;4973100;28;20061;-58
2021/05/07 04:04:17;;;;;;;2.15;1.40;;;;;;;;;;4973038;28;20037;-58
2021/05/07 04:06:43;;;;;;;1.10;0.93;;;;;;;;;;4973918;28;20038;-58
2021/05/07 04:09:14;;;;;;;1.65;1.27;;;;;;;;;;4940284;28;20038;-58
2021/05/07 04:14:05;;;;;;;1.08;1.00;;;;;;;;;;4957148;28;20045;-58
2021/05/07 04:16:31;;;;;;;1.77;1.40;;;;;;;;;;4973782;28;20662;-57
2021/05/07 04:18:59;;;;;;;3.10;0.82;;;;;;;;;;4972670;28;20737;-58
2021/05/07 04:21:25;;;;;;;2.00;0.60;;;;;;;;;;4973864;28;20451;-58
2021/05/07 04:23:53;;;;;;;2.03;0.73;;;;;;;;;;4971252;28;20038;-57
2021/05/07 04:26:21;;;;;;;0.75;0.65;;;;;;;;;;4972851;28;20037;-56
2021/05/07 04:28:47;;;;;;;1.08;0.75;;;;;;;;;;4973776;28;20137;-59
2021/05/07 04:31:13;;;;;;;1.55;0.95;;;;;;;;;;4989668;28;20118;-58
2021/05/07 04:33:40;;;;;;;1.00;0.80;;;;;;;;;;4972429;28;20038;-57
2021/05/07 04:36:06;;;;;;;2.55;0.88;;;;;;;;;;4972535;28;20687;-58
2021/05/07 04:38:31;;;;;;;0.95;0.50;;;;;;;;;;4974220;28;20038;-59
2021/05/07 04:40:57;;;;;;;0.40;0.40;;;;;;;;;;4971946;28;20488;-58
2021/05/07 04:43:28;;;;;;;1.70;0.60;;;;;;;;;;4973436;28;20034;-57
2021/05/07 04:45:53;;;;;;;1.83;0.90;;;;;;;;;;4971566;28;21626;-59
2021/05/07 04:48:20;;;;;;;3.85;0.60;;;;;;;;;;4974149;28;20034;-59
2021/05/07 04:50:45;;;;;;;0.57;0.57;;;;;;;;;;4971014;28;20061;-58
2021/05/07 04:53:11;;;;;;;0.55;0.32;;;;;;;;;;4971597;28;20500;-58
2021/05/07 04:55:37;;;;;;;0.60;0.50;;;;;;;;;;4972241;28;20044;-58
2021/05/07 04:58:04;;;;;;;1.92;0.50;;;;;;;;;;4973528;28;20037;-58
2021/05/07 05:00:33;;;;;;;3.13;0.60;;;;;;;;;;4972777;28;20039;-58
2021/05/07 05:02:59;;;;;;;0.38;0.38;;;;;;;;;;4985026;28;21929;-59
2021/05/07 05:05:25;;;;;;;0.60;0.60;;;;;;;;;;4972481;28;20030;-57
2021/05/07 05:07:52;;;;;;;0.77;0.70;;;;;;;;;;4973846;28;20038;-59
2021/05/07 05:10:19;;;;;;;3.95;0.60;;;;;;;;;;4970511;28;20025;-58
2021/05/07 05:12:48;;;;;;;2.95;0.90;;;;;;;;;;4972883;28;20037;-58
2021/05/07 05:15:13;;;;;;;0.75;0.45;;;;;;;;;;4971478;28;20161;-59
2021/05/07 05:17:39;;;;;;;0.63;0.40;;;;;;;;;;4955798;28;20026;-58
2021/05/07 05:20:06;;;;;;;0.50;0.47;;;;;;;;;;4972629;28;20092;-59
2021/05/07 05:22:31;;;;;;;0.25;0.25;;;;;;;;;;4974383;28;21291;-59
2021/05/07 05:24:58;;;;;;;0.47;0.35;;;;;;;;;;4971540;28;20027;-58
2021/05/07 05:27:23;;;;;;;0.98;0.30;;;;;;;;;;4970777;28;20097;-60
2021/05/07 05:29:49;;;;;;;0.40;0.40;;;;;;;;;;4987098;28;20841;-58
2021/05/07 05:32:17;;;;;;;0.20;0.20;;;;;;;;;;4972749;28;20034;-59
2021/05/07 05:34:44;;;;;;;0.32;0.25;;;;;;;;;;4971966;28;20033;-58
2021/05/07 05:37:14;;;;;;;2.60;0.47;;;;;;;;;;4987979;28;20649;-60
2021/05/07 05:39:39;;;;;;;1.52;0.55;;;;;;;;;;4965886;28;20034;-59
2021/05/07 05:42:05;;;;;;;0.35;0.30;;;;;;;;;;4964811;28;20034;-60
2021/05/07 05:44:30;;;;;;;0.50;0.50;;;;;;;;;;4965596;28;20038;-58
2021/05/07 05:46:57;;;;;;;2.47;0.70;;;;;;;;;;4970282;28;20034;-59
2021/05/07 05:49:22;;;;;;;2.47;0.50;;;;;;;;;;4981333;28;20690;-59
2021/05/07 05:51:50;;;;;;;1.38;0.57;;;;;;;;;;4969463;28;20072;-59
2021/05/07 05:54:15;;;;;;;3.10;1.20;;;;;;;;;;4969178;28;20062;-59
2021/05/07 05:56:42;;;;;;;1.90;0.60;;;;;;;;;;4952894;28;20236;-58
2021/05/07 05:59:07;;;;;;;0.93;0.82;;;;;;;;;;4967464;28;20049;-59
2021/05/07 06:01:33;;;;;;;1.90;0.82;;;;;;;;;;4969371;28;20034;-59
2021/05/07 06:03:59;;;;;;;2.08;0.70;;;;;;;;;;4968205;28;21417;-58
2021/05/07 06:06:27;;;;;;;1.60;0.73;;;;;;;;;;4952590;28;20515;-60
2021/05/07 06:08:53;;;;;;;1.58;0.50;;;;;;;;;;4952423;28;20429;-60
2021/05/07 06:11:20;;;;;;;1.85;0.60;;;;;;;;;;4953773;28;20034;-59
2021/05/07 06:13:49;;;;;;;1.92;0.40;;;;;;;;;;4967764;28;20496;-59
2021/05/07 06:16:14;;;;;;;1.92;0.60;;;;;;;;;;4969067;28;20040;-60
2021/05/07 06:18:39;;;;;;;0.52;0.45;;;;;;;;;;4969319;28;20098;-59
2021/05/07 06:21:05;;;;;;;0.80;0.50;;;;;;;;;;4967874;28;21793;-59
2021/05/07 06:23:33;;;;;;;1.58;0.75;;;;;;;;;;4983926;28;20225;-58
2021/05/07 06:26:00;;;;;;;0.57;0.57;;;;;;;;;;4965309;28;20037;-60
2021/05/07 06:28:25;;;;;;;0.55;0.40;;;;;;;;;;4937490;28;22249;-59
2021/05/07 06:30:55;;;;;;;0.90;0.55;;;;;;;;;;4983563;28;20457;-60
2021/05/07 06:33:23;;;;;;;1.77;0.63;;;;;;;;;;4984435;28;20045;-61
2021/05/07 06:35:49;;;;;;;1.15;0.50;;;;;;;;;;4951958;28;20033;-59
2021/05/07 06:38:15;;;;;;;0.73;0.43;;;;;;;;;;4970376;28;20924;-59
2021/05/07 06:40:41;;;;;;;1.38;0.68;;;;;;;;;;4967589;28;20034;-59
2021/05/07 06:43:08;;;;;;;2.60;0.63;;;;;;;;;;4968906;28;20436;-60
2021/05/07 06:45:33;;;;;;;0.82;0.43;;;;;;;;;;4969109;28;20049;-58
2021/05/07 06:47:59;;;;;;;0.40;0.40;;;;;;;;;;4968634;28;20532;-59
2021/05/07 06:50:24;;;;;;;1.25;0.88;;;;;;;;;;4964787;28;20033;-59
2021/05/07 06:52:50;;;;;;;4.30;0.93;;;;;;;;;;4982446;28;22091;-60
2021/05/07 06:55:18;;;;;;;3.33;0.30;;;;;;;;;;4969345;28;20026;-59
2021/05/07 06:57:45;;;;;;;0.68;0.50;;;;;;;;;;4969049;28;20097;-60
2021/05/07 07:00:16;;;;;;;1.80;0.60;;;;;;;;;;4968188;28;20034;-59
2021/05/07 07:02:42;;;;;;;0.88;0.55;;;;;;;;;;4968467;28;20030;-61
2021/05/07 07:05:11;;;;;;;3.47;1.10;;;;;;;;;;4967734;28;20026;-59
2021/05/07 07:07:37;;;;;;;2.72;1.00;;;;;;;;;;4968300;28;20046;-58
2021/05/07 07:10:05;;;;;;;1.15;0.60;;;;;;;;;;4966076;28;20058;-60
2021/05/07 07:12:31;;;;;;;1.08;0.68;;;;;;;;;;4967317;28;20030;-59
2021/05/07 07:14:59;;;;;;;1.00;0.60;;;;;;;;;;4970742;28;20253;-60
2021/05/07 07:17:24;;;;;;;1.45;0.88;;;;;;;;;;4968053;28;20036;-59
2021/05/07 07:19:50;;;;;;;2.80;0.88;;;;;;;;;;4983516;28;20034;-58
2021/05/07 07:22:17;;;;;;;0.43;0.40;;;;;;;;;;4967776;28;20112;-60
2021/05/07 07:24:43;;;;;;;0.93;0.60;;;;;;;;;;4969045;28;20078;-62
2021/05/07 07:27:08;;;;;;;2.05;0.60;;;;;;;;;;4970269;28;20900;-59
2021/05/07 07:29:34;;;;;;;1.02;0.73;;;;;;;;;;4967333;28;20192;-59
2021/05/07 07:32:00;;;;;;;1.48;0.70;;;;;;;;;;4948564;28;20034;-60
2021/05/07 07:34:26;;;;;;;1.60;0.80;;;;;;;;;;4966304;28;20120;-59
2021/05/07 07:36:54;;;;;;;2.47;0.60;;;;;;;;;;4969855;28;20026;-59
2021/05/07 07:39:23;;;;;;;0.45;0.43;;;;;;;;;;4969639;28;20715;-59
2021/05/07 07:41:48;;;;;;;2.40;0.60;;;;;;;;;;4964469;28;20038;-59
2021/05/07 07:44:14;;;;;;;3.42;0.80;;;;;;;;;;4947576;28;20127;-60
2021/05/07 07:46:42;;;;;;;0.93;0.65;;;;;;;;;;4969418;28;20125;-60
2021/05/07 07:49:10;;;;;;;2.78;1.00;;;;;;;;;;4966587;28;20071;-60
2021/05/07 07:51:36;;;;;;;1.25;0.70;;;;;;;;;;4966468;28;20038;-60
2021/05/07 07:54:06;;;;;;;1.63;0.75;;;;;;;;;;4965830;28;20045;-61
2021/05/07 07:56:34;;;;;;;8.48;1.02;;;;;;;;;;4966644;28;20045;-59
2021/05/07 07:59:00;;;;;;;0.60;0.60;;;;;;;;;;4982865;28;20034;-60
2021/05/07 08:01:26;;;;;;;1.77;0.80;;;;;;;;;;4967833;28;20026;-59
2021/05/07 08:03:52;;;;;;;1.95;1.00;;;;;;;;;;4982058;28;20085;-60
2021/05/07 08:06:21;;;;;;;1.77;0.63;;;;;;;;;;4951781;28;20138;-60
2021/05/07 08:08:49;;;;;;;4.18;0.82;;;;;;;;;;4967448;28;20023;-59
2021/05/07 08:11:17;;;;;;;1.88;0.90;;;;;;;;;;4968258;28;20102;-60
2021/05/07 08:13:45;;;;;;;2.25;1.00;;;;;;;;;;4968263;28;20658;-60
2021/05/07 08:16:11;;;;;;;1.13;0.60;;;;;;;;;;4949767;28;20026;-60
2021/05/07 08:18:36;;;;;;;1.15;0.50;;;;;;;;;;4968271;28;21778;-60
2021/05/07 08:21:02;;;;;;;0.60;0.40;;;;;;;;;;4966817;28;20047;-60
2021/05/07 08:23:30;;;;;;;1.38;0.68;;;;;;;;;;4970942;28;20058;-60
2021/05/07 08:25:58;;;;;;;2.88;0.50;;;;;;;;;;4968980;28;20042;-61
2021/05/07 08:28:24;;;;;;;1.98;0.70;;;;;;;;;;4951799;28;20072;-61
2021/05/07 08:30:50;;;;;;;2.33;0.65;;;;;;;;;;4981453;28;20619;-59
2021/05/07 08:33:15;;;;;;;0.90;0.60;;;;;;;;;;4966933;28;20038;-59
2021/05/07 08:35:41;;;;;;;3.00;0.57;;;;;;;;;;4969136;28;20425;-61
2021/05/07 08:38:08;;;;;;;3.47;0.60;;;;;;;;;;4968776;28;20197;-59
2021/05/07 08:40:34;;;;;;;3.15;0.70;;;;;;;;;;4969314;28;20026;-59
2021/05/07 08:42:59;;;;;;;0.77;0.35;;;;;;;;;;4953150;28;20173;-59
2021/05/07 08:45:28;;;;;;;1.42;0.52;;;;;;;;;;4986374;28;20038;-59
2021/05/07 08:47:53;;;;;;;0.30;0.20;;;;;;;;;;4970500;28;20039;-60
2021/05/07 08:50:19;;;;;;;0.47;0.20;;;;;;;;;;4971921;28;20030;-60
2021/05/07 08:52:47;;;;;;;1.45;0.50;;;;;;;;;;4985793;28;20088;-60
2021/05/07 08:55:13;;;;;;;2.33;0.50;;;;;;;;;;4968912;28;20117;-62
2021/05/07 08:57:42;;;;;;;0.55;0.32;;;;;;;;;;4970779;28;20034;-59
2021/05/07 09:00:09;;;;;;;0.52;0.40;;;;;;;;;;4935626;28;21034;-60
2021/05/07 09:02:35;;;;;;;2.08;0.50;;;;;;;;;;4966469;28;20035;-59
2021/05/07 09:05:00;;;;;;;0.13;0.13;;;;;;;;;;4967005;28;20073;-61
2021/05/07 09:07:31;;;;;;;0.95;0.40;;;;;;;;;;4964206;28;20031;-59
2021/05/07 09:10:03;;;;;;;1.80;0.43;;;;;;;;;;4940231;28;20034;-61
2021/05/07 09:12:36;;;;;;;1.25;0.55;;;;;;;;;;4958404;28;20209;-60
2021/05/07 09:15:03;;;;;;;1.70;0.40;;;;;;;;;;4958899;28;20074;-60
2021/05/07 09:17:33;;;;;;;3.60;0.43;;;;;;;;;;4961630;28;20069;-60
2021/05/07 09:20:17;;;;;;;0.63;0.50;;;;;;;;;;4958615;28;20035;-59
2021/05/07 09:22:43;;;;;;;1.33;0.30;;;;;;;;;;4967571;28;20049;-60
2021/05/07 09:25:10;;;;;;;3.17;0.65;;;;;;;;;;4953399;28;20038;-60
2021/05/07 09:27:39;;;;;;;1.08;0.40;;;;;;;;;;4965277;28;20030;-59
2021/05/07 09:30:08;;;;;;;1.27;0.55;;;;;;;;;;4957558;28;20100;-61
2021/05/07 09:32:34;;;;;;;0.88;0.60;;;;;;;;;;4961218;28;20077;-61
2021/05/07 09:35:07;;;;;;;1.25;0.50;;;;;;;;;;4961048;28;20090;-61
2021/05/07 09:37:35;;;;;;;0.30;0.30;;;;;;;;;;4964343;28;20038;-60
2021/05/07 09:40:20;;;;;;;1.98;0.55;;;;;;;;;;4942044;28;20073;-62
2021/05/07 09:42:48;;;;;;;2.63;0.80;;;;;;;;;;4956485;28;21402;-59
2021/05/07 09:45:21;;;;;;;0.60;0.47;;;;;;;;;;4961043;28;20144;-59
2021/05/07 09:47:48;;;;;;;0.52;0.28;;;;;;;;;;4958671;28;20034;-58
2021/05/07 09:50:14;;;;;;;0.85;0.40;;;;;;;;;;4976508;28;20062;-60
2021/05/07 09:52:40;;;;;;;1.10;0.25;;;;;;;;;;4963088;28;20371;-61
2021/05/07 09:55:07;;;;;;;0.70;0.40;;;;;;;;;;4942716;28;20104;-60
2021/05/07 09:57:34;;;;;;;1.33;0.38;;;;;;;;;;4961147;28;20132;-60
2021/05/07 09:59:59;;;;;;;0.43;0.20;;;;;;;;;;4956755;28;20034;-58
2021/05/07 10:02:25;;;;;;;0.30;0.20;;;;;;;;;;4962203;28;20049;-60
2021/05/07 10:04:50;;;;;;;2.38;0.50;;;;;;;;;;4963804;28;22146;-60
2021/05/07 10:07:16;;;;;;;0.88;0.32;;;;;;;;;;4957970;28;22359;-61
2021/05/07 10:09:42;;;;;;;0.28;0.20;;;;;;;;;;4962372;28;21973;-59
2021/05/07 10:12:09;;;;;;;1.58;0.38;;;;;;;;;;4959658;28;20034;-59
2021/05/07 10:14:45;;;;;;;0.98;0.38;;;;;;;;;;4963140;28;20060;-59
2021/05/07 10:17:11;;;;;;;1.88;0.30;;;;;;;;;;4959549;28;20042;-60
2021/05/07 10:19:43;;;;;;;2.15;0.50;;;;;;;;;;4961054;28;20856;-60
2021/05/07 10:22:11;;;;;;;0.52;0.28;;;;;;;;;;4956546;28;20038;-61
2021/05/07 10:24:39;;;;;;;1.65;0.47;;;;;;;;;;4964351;28;20034;-60
2021/05/07 10:27:18;;;;;;;0.17;0.17;;;;;;;;;;4977169;28;21059;-59
2021/05/07 10:29:51;;;;;;;0.70;0.32;;;;;;;;;;4959844;28;20106;-59
2021/05/07 10:32:17;;;;;;;0.52;0.30;;;;;;;;;;4958209;28;20038;-59
2021/05/07 10:34:45;;;;;;;1.27;0.30;;;;;;;;;;4963130;28;20034;-58
2021/05/07 10:37:12;;;;;;;2.05;0.47;;;;;;;;;;4982783;28;22159;-59
2021/05/07 10:40:03;;;;;;;0.90;0.20;;;;;;;;;;4963486;28;20044;-59
2021/05/07 10:42:28;;;;;;;1.08;0.30;;;;;;;;;;4959113;28;20035;-59
2021/05/07 10:44:54;;;;;;;0.32;0.20;;;;;;;;;;4957645;28;20037;-59
2021/05/07 10:47:32;;;;;;;1.48;0.30;;;;;;;;;;4955827;28;20022;-59
2021/05/07 10:49:58;;;;;;;0.40;0.20;;;;;;;;;;4960060;28;20047;-58
2021/05/07 10:52:24;;;;;;;0.57;0.40;;;;;;;;;;4958664;28;20166;-60
2021/05/07 10:54:53;;;;;;;2.90;0.43;;;;;;;;;;4956958;28;20693;-62
2021/05/07 10:57:23;;;;;;;0.30;0.20;;;;;;;;;;4957002;28;20080;-59
2021/05/07 11:00:05;;;;;;;1.85;0.40;;;;;;;;;;4958040;28;20470;-62
2021/05/07 11:02:44;;;;;;;3.22;0.40;;;;;;;;;;4972704;28;20121;-60
2021/05/07 11:05:10;;;;;;;0.70;0.20;;;;;;;;;;4956041;28;20027;-60
2021/05/07 11:07:37;;;;;;;1.35;0.20;;;;;;;;;;4958170;28;20128;-58
2021/05/07 11:10:08;;;;;;;0.50;0.35;;;;;;;;;;4959024;28;20055;-59
2021/05/07 11:12:37;;;;;;;3.60;0.45;;;;;;;;;;4960545;28;20038;-63
2021/05/07 11:15:04;;;;;;;0.47;0.25;;;;;;;;;;4973968;28;20042;-59
2021/05/07 11:17:34;;;;;;;0.93;0.30;;;;;;;;;;4960114;28;20038;-59
2021/05/07 11:20:03;;;;;;;0.10;0.10;;;;;;;;;;4959215;28;22115;-59
2021/05/07 11:22:28;;;;;;;1.88;0.43;;;;;;;;;;4958507;28;20042;-61
2021/05/07 11:24:54;;;;;;;1.60;0.17;;;;;;;;;;4957902;28;20045;-59
2021/05/07 11:27:27;;;;;;;0.50;0.22;;;;;;;;;;4962847;28;20038;-59
2021/05/07 11:30:03;;;;;;;1.33;0.20;;;;;;;;;;4956615;28;20105;-58
2021/05/07 11:32:29;;;;;;;1.75;0.30;;;;;;;;;;4952579;28;20038;-60
2021/05/07 11:34:56;;;;;;;4.07;0.40;;;;;;;;;;4958383;28;20038;-58
2021/05/07 11:37:22;;;;;;;1.05;0.10;;;;;;;;;;4963620;28;21594;-58
2021/05/07 11:40:05;;;;;;;0.50;0.40;;;;;;;;;;4968293;28;20022;-60
2021/05/07 11:42:35;;;;;;;0.95;0.35;;;;;;;;;;4962096;28;20228;-59
2021/05/07 11:45:06;;;;;;;0.60;0.47;;;;;;;;;;4957109;28;22115;-59
2021/05/07 11:47:32;;;;;;;1.20;0.30;;;;;;;;;;4952701;28;20046;-60
2021/05/07 11:50:00;;;;;;;4.10;0.60;;;;;;;;;;4976710;28;20018;-59
2021/05/07 11:52:35;;;;;;;1.17;0.20;;;;;;;;;;4958048;28;20042;-60
2021/05/07 11:55:01;;;;;;;2.60;0.38;;;;;;;;;;4956802;28;20035;-59
2021/05/07 11:57:30;;;;;;;1.95;0.43;;;;;;;;;;4964656;28;20034;-59
2021/05/07 11:59:56;;;;;;;0.80;0.28;;;;;;;;;;4959120;28;20042;-59
2021/05/07 12:02:26;;;;;;;2.83;0.43;;;;;;;;;;4962614;28;20115;-58
2021/05/07 12:04:53;;;;;;;0.80;0.30;;;;;;;;;;4945920;28;20520;-60
2021/05/07 12:07:22;;;;;;;0.77;0.25;;;;;;;;;;4962982;28;20080;-59
2021/05/07 12:09:48;;;;;;;2.22;0.50;;;;;;;;;;4974009;28;20041;-60
2021/05/07 12:12:14;;;;;;;3.10;0.38;;;;;;;;;;4978735;28;20498;-59
2021/05/07 12:14:48;;;;;;;0.30;0.20;;;;;;;;;;4962838;28;20046;-60
2021/05/07 12:17:14;;;;;;;1.73;0.50;;;;;;;;;;4960950;28;20035;-62
2021/05/07 12:19:42;;;;;;;1.63;0.40;;;;;;;;;;4958712;28;20092;-62
2021/05/07 12:22:21;;;;;;;0.63;0.20;;;;;;;;;;4946451;28;20101;-59
2021/05/07 12:24:49;;;;;;;1.23;0.50;;;;;;;;;;4944624;28;20073;-62
2021/05/07 12:27:28;;;;;;;1.30;0.90;;;;;;;;;;4968945;28;20613;-59
2021/05/07 12:29:54;;;;;;;4.18;0.60;;;;;;;;;;4948032;28;20049;-58
2021/05/07 12:32:23;;;;;;;1.48;0.50;;;;;;;;;;4963174;28;20053;-60
2021/05/07 12:34:58;;;;;;;1.45;0.30;;;;;;;;;;4944683;28;21710;-61
2021/05/07 12:37:39;;;;;;;3.92;0.60;;;;;;;;;;4944041;28;20042;-60
2021/05/07 12:40:05;;;;;;;3.03;0.50;;;;;;;;;;4944531;28;20034;-60
2021/05/07 12:42:31;;;;;;;3.65;0.70;;;;;;;;;;4946218;28;20371;-59
2021/05/07 12:44:56;;;;;;;1.38;0.30;;;;;;;;;;4976599;28;20049;-59
2021/05/07 12:47:22;;;;;;;0.50;0.50;;;;;;;;;;4943016;28;20026;-59
2021/05/07 12:49:52;;;;;;;3.85;0.80;;;;;;;;;;4962204;28;20034;-62
2021/05/07 12:52:21;;;;;;;1.88;0.68;;;;;;;;;;4961910;28;20073;-64
2021/05/07 12:54:46;;;;;;;0.75;0.50;;;;;;;;;;4961111;28;20034;-59
2021/05/07 12:57:13;;;;;;;3.13;1.02;;;;;;;;;;4965952;28;20030;-60
2021/05/07 12:59:41;;;;;;;1.42;0.55;;;;;;;;;;4946961;28;20033;-59
2021/05/07 13:02:06;;;;;;;1.13;0.40;;;;;;;;;;4960054;28;20125;-61
2021/05/07 13:04:34;;;;;;;1.30;0.30;;;;;;;;;;4960241;28;20038;-60
2021/05/07 13:07:01;;;;;;;1.35;0.40;;;;;;;;;;4960506;28;20030;-62
2021/05/07 13:09:27;;;;;;;0.80;0.38;;;;;;;;;;4961783;28;21061;-59
2021/05/07 13:11:54;;;;;;;0.30;0.30;;;;;;;;;;4959549;28;20619;-60
2021/05/07 13:14:23;;;;;;;0.47;0.20;;;;;;;;;;4963064;28;20038;-61
2021/05/07 13:16:53;;;;;;;2.90;0.40;;;;;;;;;;4943625;28;20169;-60
2021/05/07 13:19:23;;;;;;;0.73;0.47;;;;;;;;;;4958611;28;20034;-62
2021/05/07 13:21:53;;;;;;;1.02;0.32;;;;;;;;;;4960668;28;20670;-62
2021/05/07 13:24:19;;;;;;;1.17;0.32;;;;;;;;;;4945328;28;20662;-62
2021/05/07 13:26:47;;;;;;;0.30;0.22;;;;;;;;;;4928565;28;20030;-59
2021/05/07 13:29:12;;;;;;;0.63;0.30;;;;;;;;;;4964057;28;20069;-61
2021/05/07 13:31:38;;;;;;;2.47;0.43;;;;;;;;;;4924547;28;20409;-61
2021/05/07 13:34:04;;;;;;;1.33;0.40;;;;;;;;;;4958694;28;20153;-61
2021/05/07 13:36:32;;;;;;;0.20;0.17;;;;;;;;;;4960864;28;20084;-59
2021/05/07 13:38:59;;;;;;;1.13;0.40;;;;;;;;;;4959703;28;20069;-59
2021/05/07 13:41:25;;;;;;;0.55;0.30;;;;;;;;;;4958422;28;20030;-59
2021/05/07 13:43:51;;;;;;;3.20;0.30;;;;;;;;;;4981470;28;20038;-59
2021/05/07 13:46:16;;;;;;;2.92;0.50;;;;;;;;;;4972665;28;20045;-60
2021/05/07 13:48:42;;;;;;;2.63;0.30;;;;;;;;;;4965644;28;20081;-60
2021/05/07 13:51:07;;;;;;;0.57;0.32;;;;;;;;;;4982011;28;20042;-60
2021/05/07 13:53:33;;;;;;;2.85;0.95;;;;;;;;;;4967383;28;20122;-61
2021/05/07 13:55:58;;;;;;;2.22;0.13;;;;;;;;;;4965699;28;20030;-58
2021/05/07 13:58:26;;;;;;;0.73;0.40;;;;;;;;;;4966353;28;20394;-59
2021/05/07 14:00:52;;;;;;;0.63;0.40;;;;;;;;;;4965380;28;20030;-60
2021/05/07 14:03:17;;;;;;;2.22;0.32;;;;;;;;;;4966677;28;20123;-61
2021/05/07 14:05:46;;;;;;;0.93;0.20;;;;;;;;;;4968975;28;20532;-61
2021/05/07 14:08:12;;;;;;;3.63;0.40;;;;;;;;;;4963400;28;20034;-61
2021/05/07 14:10:38;;;;;;;0.35;0.35;;;;;;;;;;4950443;28;20036;-61
2021/05/07 14:13:03;;;;;;;0.82;0.40;;;;;;;;;;4968396;28;20109;-58
2021/05/07 14:15:29;;;;;;;1.02;0.43;;;;;;;;;;4963821;28;20973;-62
2021/05/07 14:17:57;;;;;;;1.10;0.32;;;;;;;;;;4965498;28;20073;-58
2021/05/07 14:20:25;;;;;;;0.43;0.30;;;;;;;;;;4954740;28;20034;-60
2021/05/07 14:22:53;;;;;;;0.55;0.32;;;;;;;;;;4968362;28;20038;-62
2021/05/07 14:25:19;;;;;;;2.47;0.40;;;;;;;;;;4964691;28;20041;-61
2021/05/07 14:27:45;;;;;;;4.50;0.45;;;;;;;;;;4961929;28;20057;-59
2021/05/07 14:30:12;;;;;;;2.75;0.52;;;;;;;;;;4949453;28;20084;-59
2021/05/07 14:32:38;;;;;;;1.08;0.40;;;;;;;;;;4967976;28;20485;-58
2021/05/07 14:35:04;;;;;;;1.17;0.47;;;;;;;;;;4982130;28;20080;-62
2021/05/07 14:37:29;;;;;;;1.45;0.40;;;;;;;;;;4949916;28;20073;-59
2021/05/07 14:39:55;;;;;;;1.67;0.40;;;;;;;;;;4966060;28;20050;-58
2021/05/07 14:42:23;;;;;;;3.25;0.50;;;;;;;;;;4966910;28;20035;-62
2021/05/07 14:44:49;;;;;;;0.90;0.30;;;;;;;;;;4982748;28;20430;-61
2021/05/07 14:47:16;;;;;;;2.45;1.33;;;;;;;;;;4964060;28;20041;-60